createdAt,value
2022-12-19T00:01:48.652Z,2.50
2022-12-19T00:05:50.298Z,2.40
2022-12-19T00:09:51.893Z,2.40
2022-12-19T00:13:53.470Z,2.50
2022-12-19T00:17:55.141Z,2.50
2022-12-19T00:21:56.899Z,2.60
2022-12-19T00:26:13.003Z,2.60
2022-12-19T00:30:14.652Z,2.80
2022-12-19T00:34:16.525Z,3.00
2022-12-19T00:38:18.146Z,3.20
2022-12-19T00:42:19.768Z,3.50
2022-12-19T00:46:21.678Z,3.60
2022-12-19T00:50:23.292Z,3.70
2022-12-19T00:54:24.986Z,3.80
2022-12-19T00:58:26.949Z,3.90
2022-12-19T01:02:28.643Z,4.00
2022-12-19T01:06:30.532Z,4.00
2022-12-19T01:10:32.768Z,4.10
2022-12-19T01:14:34.541Z,4.20
2022-12-19T01:18:36.349Z,4.30
2022-12-19T01:22:38.055Z,4.40
2022-12-19T01:26:39.626Z,4.30
2022-12-19T01:30:41.510Z,4.30
2022-12-19T01:34:43.350Z,4.20
2022-12-19T01:38:44.867Z,4.30
2022-12-19T01:42:46.562Z,4.20
2022-12-19T01:46:49.938Z,4.30
2022-12-19T01:51:02.830Z,4.40
2022-12-19T01:55:04.635Z,4.40
2022-12-19T01:59:13.809Z,4.40
2022-12-19T02:03:19.591Z,4.40
2022-12-19T02:07:22.383Z,4.40
2022-12-19T02:11:23.999Z,4.60
2022-12-19T02:15:29.083Z,4.70
2022-12-19T02:19:39.916Z,4.70
2022-12-19T02:24:00.327Z,4.80
2022-12-19T02:28:07.975Z,4.90
2022-12-19T02:32:19.923Z,4.80
2022-12-19T02:36:25.229Z,4.80
2022-12-19T02:40:28.991Z,4.70
2022-12-19T02:44:41.516Z,4.70
2022-12-19T02:48:43.206Z,4.70
2022-12-19T02:52:45.803Z,4.70
2022-12-19T02:57:08.589Z,4.70
2022-12-19T03:01:15.675Z,4.70
2022-12-19T03:05:37.172Z,4.70
2022-12-19T03:09:44.866Z,4.80
2022-12-19T03:13:58.445Z,4.90
2022-12-19T03:18:00.740Z,4.80
2022-12-19T03:22:02.388Z,4.90
2022-12-19T03:26:08.456Z,4.80
2022-12-19T03:30:12.008Z,4.90
2022-12-19T03:34:33.846Z,4.90
2022-12-19T03:38:37.429Z,5.00
2022-12-19T03:42:58.800Z,5.00
2022-12-19T03:47:23.899Z,5.00
2022-12-19T03:51:32.409Z,5.00
2022-12-19T03:55:38.645Z,5.00
2022-12-19T03:59:56.238Z,4.90
2022-12-19T04:03:58.112Z,4.90
2022-12-19T04:08:02.561Z,4.90
2022-12-19T04:12:06.735Z,4.90
2022-12-19T04:16:27.560Z,5.00
2022-12-19T04:20:31.288Z,4.90
2022-12-19T04:24:43.619Z,5.00
2022-12-19T04:28:45.358Z,5.10
2022-12-19T04:32:47.420Z,5.20
2022-12-19T04:36:50.719Z,5.30
2022-12-19T04:40:52.305Z,5.40
2022-12-19T04:44:53.934Z,5.50
2022-12-19T04:48:55.738Z,5.50
2022-12-19T04:52:57.428Z,5.50
2022-12-19T04:56:59.242Z,5.60
2022-12-19T05:01:05.283Z,5.60
2022-12-19T05:05:07.287Z,5.60
2022-12-19T05:09:09.936Z,5.70
2022-12-19T05:13:12.081Z,5.80
2022-12-19T05:17:14.046Z,5.90
2022-12-19T05:21:15.951Z,6.10
2022-12-19T05:25:17.753Z,6.10
2022-12-19T05:29:19.452Z,6.10
2022-12-19T05:33:21.074Z,6.00
2022-12-19T05:37:22.696Z,6.20
2022-12-19T05:41:24.291Z,6.40
2022-12-19T05:45:26.049Z,6.80
2022-12-19T05:49:33.452Z,6.70
2022-12-19T05:58:01.285Z,6.90
2022-12-19T06:02:16.127Z,6.90
2022-12-19T06:06:19.402Z,7.00
2022-12-19T06:10:21.143Z,7.00
2022-12-19T06:14:22.888Z,7.00
2022-12-19T06:18:25.480Z,7.10
2022-12-19T06:22:27.215Z,7.20
2022-12-19T06:26:28.902Z,7.20
2022-12-19T06:30:30.719Z,7.30
2022-12-19T06:35:02.718Z,7.20
2022-12-19T06:38:55.082Z,7.30
2022-12-19T06:42:56.679Z,7.20
2022-12-19T06:46:58.245Z,7.20
2022-12-19T06:50:59.935Z,7.20
2022-12-19T06:55:01.531Z,7.30
2022-12-19T06:59:03.591Z,7.20
2022-12-19T07:03:06.552Z,7.30
2022-12-19T07:07:08.194Z,7.30
2022-12-19T07:11:09.857Z,7.50
2022-12-19T07:15:12.240Z,7.60
2022-12-19T07:19:14.115Z,7.60
2022-12-19T07:23:17.954Z,7.70
2022-12-19T07:27:19.518Z,7.90
2022-12-19T07:31:21.182Z,8.00
2022-12-19T07:35:23.224Z,8.00
2022-12-19T07:39:25.008Z,8.10
2022-12-19T07:43:26.822Z,8.20
2022-12-19T07:47:28.459Z,8.10
2022-12-19T07:51:30.078Z,8.10
2022-12-19T07:55:33.570Z,8.20
2022-12-19T07:59:38.897Z,8.10
2022-12-19T08:03:41.284Z,8.10
2022-12-19T08:07:42.998Z,8.00
2022-12-19T08:11:44.731Z,8.00
2022-12-19T08:15:46.379Z,7.90
2022-12-19T08:19:48.083Z,7.90
2022-12-19T08:23:49.779Z,7.90
2022-12-19T08:27:51.499Z,7.90
2022-12-19T08:31:53.181Z,7.80
2022-12-19T08:35:55.218Z,7.70
2022-12-19T08:39:57.142Z,7.70
2022-12-19T08:43:58.764Z,7.70
2022-12-19T08:48:01.242Z,7.80
2022-12-19T08:52:02.955Z,7.70
2022-12-19T08:56:07.507Z,7.80
2022-12-19T09:00:09.509Z,7.90
2022-12-19T09:05:18.768Z,8.00
2022-12-19T09:08:33.883Z,8.10
2022-12-19T09:12:35.540Z,8.10
2022-12-19T09:16:37.347Z,8.10
2022-12-19T09:20:39.224Z,8.10
2022-12-19T09:24:40.890Z,8.10
2022-12-19T09:28:42.788Z,8.20
2022-12-19T09:32:44.441Z,8.20
2022-12-19T09:36:46.083Z,8.20
2022-12-19T09:41:06.461Z,8.10
2022-12-19T09:45:31.752Z,8.10
2022-12-19T09:49:37.110Z,8.20
2022-12-19T09:53:53.403Z,8.30
2022-12-19T09:58:08.403Z,8.40
2022-12-19T10:02:28.646Z,8.50
2022-12-19T10:07:14.443Z,8.50
2022-12-19T10:12:38.174Z,8.60
2022-12-19T10:15:47.250Z,8.70
2022-12-19T10:20:09.948Z,8.70
2022-12-19T10:24:20.939Z,8.70
2022-12-19T10:28:28.983Z,8.60
2022-12-19T10:32:53.546Z,8.70
2022-12-19T10:37:25.386Z,8.60
2022-12-19T10:41:24.457Z,8.70
2022-12-19T10:45:30.900Z,8.60
2022-12-19T10:49:32.503Z,8.60
2022-12-19T10:53:34.231Z,8.60
2022-12-19T10:57:35.900Z,8.60
2022-12-19T11:01:39.046Z,8.60
2022-12-19T11:05:51.286Z,8.60
2022-12-19T11:10:45.199Z,8.80
2022-12-19T11:19:41.904Z,8.80
2022-12-19T11:28:32.356Z,8.80
2022-12-19T11:30:09.085Z,8.90
2022-12-19T11:30:37.870Z,8.90
2022-12-19T11:32:36.564Z,8.90
2022-12-19T11:36:33.963Z,8.90
2022-12-19T11:40:52.950Z,9.00
2022-12-19T11:45:01.461Z,9.10
2022-12-19T11:49:10.306Z,9.20
2022-12-19T11:53:19.677Z,9.40
2022-12-19T11:57:21.345Z,9.40
2022-12-19T12:01:38.433Z,9.30
2022-12-19T12:05:40.041Z,9.30
2022-12-19T12:14:23.234Z,9.40
2022-12-19T12:23:00.152Z,9.40
2022-12-19T12:31:20.142Z,9.50
2022-12-19T12:31:41.206Z,9.50
2022-12-19T12:31:53.737Z,9.50
2022-12-19T12:35:36.471Z,9.50
2022-12-19T12:41:55.439Z,9.70
2022-12-19T12:45:57.167Z,9.70
2022-12-19T12:50:00.847Z,9.80
2022-12-19T12:54:07.233Z,9.80
2022-12-19T12:58:27.824Z,9.80
2022-12-19T13:02:29.915Z,9.80
2022-12-19T13:06:36.731Z,9.70
2022-12-19T13:10:38.613Z,9.70
2022-12-19T13:14:42.298Z,9.70
2022-12-19T13:19:01.847Z,9.90
2022-12-19T13:23:05.583Z,9.80
2022-12-19T13:27:19.389Z,9.80
2022-12-19T13:31:23.140Z,9.70
2022-12-19T13:36:44.709Z,9.80
2022-12-19T13:40:08.895Z,9.80
2022-12-19T13:44:12.517Z,9.80
2022-12-19T13:48:16.814Z,9.80
2022-12-19T13:52:18.497Z,9.80
2022-12-19T13:56:21.053Z,9.80
2022-12-19T14:00:36.102Z,9.80
2022-12-19T14:04:40.263Z,9.80
2022-12-19T14:08:44.664Z,9.80
2022-12-19T14:13:59.391Z,9.80
2022-12-19T14:17:29.268Z,9.80
2022-12-19T14:22:04.874Z,9.80
2022-12-19T14:28:24.527Z,9.90
2022-12-19T14:30:30.510Z,9.80
2022-12-19T14:35:55.361Z,9.80
2022-12-19T14:39:24.703Z,9.80
2022-12-19T14:44:00.463Z,9.80
2022-12-19T14:54:10.728Z,9.60
2022-12-19T14:54:27.813Z,9.80
2022-12-19T14:57:04.860Z,9.70
2022-12-19T15:01:22.926Z,9.90
2022-12-19T15:05:25.717Z,9.60
2022-12-19T15:11:02.547Z,9.40
2022-12-19T15:14:53.739Z,9.40
2022-12-19T15:18:30.714Z,9.40
2022-12-19T15:22:32.359Z,9.40
2022-12-19T15:26:35.292Z,9.50
2022-12-19T15:30:37.927Z,9.50
2022-12-19T15:34:50.493Z,9.30
2022-12-19T15:38:52.838Z,9.30
2022-12-19T15:42:56.058Z,9.20
2022-12-19T15:46:58.336Z,9.10
2022-12-19T15:50:59.961Z,9.00
2022-12-19T15:55:01.604Z,9.10
2022-12-19T15:59:04.421Z,9.10
2022-12-19T16:03:23.215Z,9.20
2022-12-19T16:07:26.382Z,9.10
2022-12-19T16:11:28.546Z,9.10
2022-12-19T16:15:31.345Z,9.00
2022-12-19T16:19:33.325Z,9.20
2022-12-19T16:23:34.911Z,9.30
2022-12-19T16:27:36.572Z,9.50
2022-12-19T16:31:38.241Z,9.50
2022-12-19T16:36:03.592Z,9.50
2022-12-19T16:40:02.038Z,9.50
2022-12-19T16:44:03.885Z,9.40
2022-12-19T16:48:25.985Z,9.40
2022-12-19T16:52:27.604Z,9.50
2022-12-19T16:56:37.058Z,9.50
2022-12-19T17:00:38.764Z,9.70
2022-12-19T17:04:42.766Z,9.70
2022-12-19T17:08:44.993Z,9.70
2022-12-19T17:12:46.975Z,9.60
2022-12-19T17:16:49.183Z,9.70
2022-12-19T17:20:50.877Z,9.70
2022-12-19T17:24:52.487Z,9.60
2022-12-19T17:28:55.764Z,9.60
2022-12-19T17:32:57.442Z,9.60
2022-12-19T17:37:00.449Z,9.60
2022-12-19T17:41:02.056Z,9.60
2022-12-19T17:45:04.140Z,9.60
2022-12-19T17:49:06.007Z,9.60
2022-12-19T17:53:14.402Z,9.60
2022-12-19T17:57:17.779Z,9.60
2022-12-19T18:01:24.061Z,9.70
2022-12-19T18:05:31.813Z,9.70
2022-12-19T18:09:33.410Z,9.70
2022-12-19T18:13:35.164Z,9.70
2022-12-19T18:17:37.612Z,9.80
2022-12-19T18:21:39.263Z,9.70
2022-12-19T18:25:41.241Z,9.80
2022-12-19T18:29:42.911Z,9.80
2022-12-19T18:33:46.568Z,9.80
2022-12-19T18:37:49.450Z,9.80
2022-12-19T18:41:51.375Z,9.90
2022-12-19T18:45:53.224Z,9.90
2022-12-19T18:49:55.192Z,9.90
2022-12-19T18:53:56.855Z,9.90
2022-12-19T18:57:58.486Z,9.90
2022-12-19T19:02:00.276Z,9.90
2022-12-19T19:06:03.625Z,9.90
2022-12-19T19:10:27.619Z,10.00
2022-12-19T19:14:29.298Z,10.00
2022-12-19T19:18:38.034Z,10.00
2022-12-19T19:22:39.694Z,10.20
2022-12-19T19:26:41.392Z,10.10
2022-12-19T19:30:43.284Z,10.20
2022-12-19T19:34:45.153Z,10.40
2022-12-19T19:38:48.725Z,10.40
2022-12-19T19:42:50.408Z,10.30
2022-12-19T19:46:52.333Z,10.30
2022-12-19T19:50:53.968Z,10.10
2022-12-19T19:54:55.721Z,10.10
2022-12-19T19:58:59.416Z,10.20
2022-12-19T20:03:06.175Z,10.20
2022-12-19T20:07:09.012Z,10.30
2022-12-19T20:11:10.750Z,10.30
2022-12-19T20:15:12.520Z,10.20
2022-12-19T20:19:15.658Z,10.20
2022-12-19T20:23:17.354Z,10.20
2022-12-19T20:27:19.038Z,10.20
2022-12-19T20:31:21.849Z,10.20
2022-12-19T20:35:23.711Z,10.10
2022-12-19T20:39:25.677Z,10.10
2022-12-19T20:43:27.270Z,10.20
2022-12-19T20:47:28.891Z,10.20
2022-12-19T20:51:30.536Z,10.30
2022-12-19T20:55:32.211Z,10.40
2022-12-19T20:59:33.840Z,10.30
2022-12-19T21:03:36.421Z,10.30
2022-12-19T21:07:38.147Z,10.40
2022-12-19T21:11:39.809Z,10.40
2022-12-19T21:15:41.443Z,10.40
2022-12-19T21:19:43.101Z,10.40
2022-12-19T21:23:45.373Z,10.40
2022-12-19T21:27:47.240Z,10.50
2022-12-19T21:31:48.971Z,10.50
2022-12-19T21:35:50.648Z,10.50
2022-12-19T21:39:52.229Z,10.50
2022-12-19T21:43:54.902Z,10.50
2022-12-19T21:47:59.068Z,10.70
2022-12-19T21:52:00.685Z,10.70
2022-12-19T21:56:28.800Z,10.80
2022-12-19T22:00:30.523Z,10.90
2022-12-19T22:04:32.218Z,10.90
2022-12-19T22:08:34.054Z,10.90
2022-12-19T22:12:35.623Z,10.80
2022-12-19T22:16:38.101Z,10.80
2022-12-19T22:20:43.244Z,10.70
2022-12-19T22:24:44.868Z,10.70
2022-12-19T22:28:47.263Z,10.70
2022-12-19T22:32:48.846Z,10.80
2022-12-19T22:36:50.514Z,10.90
2022-12-19T22:40:52.119Z,10.80
2022-12-19T22:44:53.900Z,10.80
2022-12-19T22:48:56.969Z,10.90
2022-12-19T22:52:58.598Z,10.90
2022-12-19T22:57:00.185Z,10.90
2022-12-19T23:01:02.786Z,10.80
2022-12-19T23:05:04.528Z,10.90
2022-12-19T23:09:07.084Z,11.00
2022-12-19T23:13:09.026Z,11.00
2022-12-19T23:17:10.780Z,11.00
2022-12-19T23:21:14.221Z,11.00
2022-12-19T23:25:15.863Z,10.90
2022-12-19T23:29:17.526Z,10.90
2022-12-19T23:33:19.117Z,10.80
2022-12-19T23:37:20.737Z,10.90
2022-12-19T23:41:23.157Z,10.80
2022-12-19T23:45:25.147Z,10.80
2022-12-19T23:49:27.197Z,10.70
2022-12-19T23:53:28.946Z,10.70
2022-12-19T23:57:30.629Z,10.60
